Time;durP1;ratioP1;P1;durP2;ratioP2;P2;SDS_P1;SDS_P2;PMS_P1;PMS_P2;Temp;Humidity;BMP_temperature;BMP_pressure;BME280_temperature;BME280_humidity;BME280_pressure;Samples;Min_cycle;Max_cycle;Signal;HPM_P1;HPM_P2
2022/12/18 00:01:34;;;;;;;16.83;10.30;;;;;;;;;;5000953;28;20046;-66
2022/12/18 00:04:02;;;;;;;16.67;10.32;;;;;;;;;;4986058;28;20038;-62
2022/12/18 00:06:29;;;;;;;14.70;9.35;;;;;;;;;;4994406;28;20058;-64
2022/12/18 00:08:57;;;;;;;14.80;9.68;;;;;;;;;;5002110;28;20049;-65
2022/12/18 00:11:26;;;;;;;17.83;9.73;;;;;;;;;;5001879;28;20097;-65
2022/12/18 00:13:54;;;;;;;20.48;10.05;;;;;;;;;;4984992;28;21624;-65
2022/12/18 00:16:23;;;;;;;21.15;10.00;;;;;;;;;;4984065;28;20069;-65
2022/12/18 00:18:50;;;;;;;16.60;9.93;;;;;;;;;;4986038;28;20054;-64
2022/12/18 00:21:17;;;;;;;20.73;9.13;;;;;;;;;;4993378;28;20132;-64
2022/12/18 00:23:45;;;;;;;13.73;8.95;;;;;;;;;;5006070;28;20045;-64
2022/12/18 00:26:18;;;;;;;16.77;9.02;;;;;;;;;;4999659;28;20045;-65
2022/12/18 00:28:45;;;;;;;16.88;9.02;;;;;;;;;;5003626;28;20509;-63
2022/12/18 00:31:14;;;;;;;14.45;8.82;;;;;;;;;;4983359;28;20046;-63
2022/12/18 00:33:40;;;;;;;21.23;8.65;;;;;;;;;;4994183;28;20517;-64
2022/12/18 00:36:10;;;;;;;15.38;9.23;;;;;;;;;;5007104;28;20054;-62
2022/12/18 00:38:36;;;;;;;13.23;8.63;;;;;;;;;;5002676;28;20038;-65
2022/12/18 00:41:03;;;;;;;15.23;8.45;;;;;;;;;;4998064;28;20734;-64
2022/12/18 00:43:29;;;;;;;14.27;8.40;;;;;;;;;;4983744;28;20502;-64
2022/12/18 00:45:56;;;;;;;13.40;8.82;;;;;;;;;;4983740;28;20050;-65
2022/12/18 00:48:22;;;;;;;13.50;8.45;;;;;;;;;;4985768;28;20058;-62
2022/12/18 00:50:50;;;;;;;13.63;8.13;;;;;;;;;;4999863;28;20053;-62
2022/12/18 00:53:15;;;;;;;14.43;7.93;;;;;;;;;;4990741;28;20069;-64
2022/12/18 00:55:42;;;;;;;16.52;8.60;;;;;;;;;;5002377;28;20046;-62
2022/12/18 00:58:09;;;;;;;12.27;7.50;;;;;;;;;;4997989;28;20223;-62
2022/12/18 01:00:35;;;;;;;15.68;8.02;;;;;;;;;;4999706;28;20046;-62
2022/12/18 01:03:02;;;;;;;13.80;7.93;;;;;;;;;;4995358;28;20072;-61
2022/12/18 01:05:29;;;;;;;15.13;8.15;;;;;;;;;;4992031;28;20057;-62
2022/12/18 01:07:56;;;;;;;15.25;7.78;;;;;;;;;;4991241;28;20053;-61
2022/12/18 01:10:23;;;;;;;12.90;7.18;;;;;;;;;;5003953;28;20140;-60
2022/12/18 01:12:49;;;;;;;17.38;7.63;;;;;;;;;;5001456;28;20041;-61
2022/12/18 01:15:16;;;;;;;12.63;7.22;;;;;;;;;;5009694;28;20058;-61
2022/12/18 01:17:42;;;;;;;19.45;7.47;;;;;;;;;;4992731;28;20607;-62
2022/12/18 01:20:10;;;;;;;14.25;7.13;;;;;;;;;;4995127;28;20115;-62
2022/12/18 01:22:36;;;;;;;15.07;7.70;;;;;;;;;;4999206;28;20049;-60
2022/12/18 01:25:04;;;;;;;11.32;6.70;;;;;;;;;;4985274;28;20050;-63
2022/12/18 01:27:30;;;;;;;15.73;7.63;;;;;;;;;;5000609;28;20050;-61
2022/12/18 01:29:56;;;;;;;15.23;7.65;;;;;;;;;;5003364;28;20054;-62
2022/12/18 01:32:22;;;;;;;10.68;6.65;;;;;;;;;;4997338;28;20069;-61
2022/12/18 01:34:48;;;;;;;10.95;7.20;;;;;;;;;;4999194;28;20046;-61
2022/12/18 01:37:14;;;;;;;11.50;7.20;;;;;;;;;;5003930;28;20072;-61
2022/12/18 01:39:40;;;;;;;9.93;7.35;;;;;;;;;;5001659;28;20057;-61
2022/12/18 01:42:13;;;;;;;11.73;7.55;;;;;;;;;;5004639;28;20398;-62
2022/12/18 01:45:03;;;;;;;12.25;7.57;;;;;;;;;;5004373;28;20053;-61
2022/12/18 01:47:50;;;;;;;12.85;7.05;;;;;;;;;;4996989;28;20638;-62
2022/12/18 01:50:24;;;;;;;13.75;7.65;;;;;;;;;;4998782;28;20519;-62
2022/12/18 01:52:53;;;;;;;13.57;7.30;;;;;;;;;;4994735;28;20042;-61
2022/12/18 01:55:22;;;;;;;13.68;8.20;;;;;;;;;;5004898;28;20042;-61
2022/12/18 01:57:49;;;;;;;16.73;8.15;;;;;;;;;;5001546;28;20490;-61
2022/12/18 02:00:19;;;;;;;15.93;8.50;;;;;;;;;;5003101;28;20054;-61
2022/12/18 02:02:46;;;;;;;19.20;8.40;;;;;;;;;;5000201;28;20456;-64
2022/12/18 02:05:23;;;;;;;13.68;7.95;;;;;;;;;;5005226;28;20510;-62
2022/12/18 02:08:04;;;;;;;16.20;8.57;;;;;;;;;;5000775;28;20138;-63
2022/12/18 02:10:35;;;;;;;12.43;8.02;;;;;;;;;;4981128;28;20065;-59
2022/12/18 02:13:40;;;;;;;12.27;7.88;;;;;;;;;;5006076;28;20440;-61
2022/12/18 02:16:30;;;;;;;16.92;8.25;;;;;;;;;;5002926;28;20099;-66
2022/12/18 02:19:00;;;;;;;13.07;7.93;;;;;;;;;;5001333;28;20049;-63
2022/12/18 02:21:54;;;;;;;12.98;7.22;;;;;;;;;;5002954;28;20653;-61
2022/12/18 02:24:28;;;;;;;16.40;7.95;;;;;;;;;;4999601;28;20065;-60
2022/12/18 02:27:04;;;;;;;20.88;8.80;;;;;;;;;;5006028;28;20061;-65
2022/12/18 02:29:52;;;;;;;19.27;8.00;;;;;;;;;;4977415;28;20042;-61
2022/12/18 02:32:25;;;;;;;12.93;7.70;;;;;;;;;;5002120;28;20401;-63
2022/12/18 02:34:53;;;;;;;17.02;8.30;;;;;;;;;;4999231;28;20080;-62
2022/12/18 02:37:20;;;;;;;12.85;7.45;;;;;;;;;;5007208;28;20440;-62
2022/12/18 02:39:48;;;;;;;15.50;8.10;;;;;;;;;;4994182;28;20509;-59
2022/12/18 02:42:16;;;;;;;12.30;7.80;;;;;;;;;;5004382;28;20053;-66
2022/12/18 02:44:45;;;;;;;16.85;7.75;;;;;;;;;;4990377;28;20378;-62
2022/12/18 02:47:12;;;;;;;10.57;6.43;;;;;;;;;;4996272;28;20100;-65
2022/12/18 02:50:04;;;;;;;12.98;7.05;;;;;;;;;;4976715;28;20513;-61
2022/12/18 02:52:46;;;;;;;13.02;7.95;;;;;;;;;;5000015;28;20054;-63
2022/12/18 02:55:44;;;;;;;11.38;7.20;;;;;;;;;;5002408;28;20059;-63
2022/12/18 02:58:26;;;;;;;11.90;7.80;;;;;;;;;;5004777;28;20057;-60
2022/12/18 03:00:58;;;;;;;15.63;7.38;;;;;;;;;;5006448;28;20046;-63
2022/12/18 03:03:40;;;;;;;14.65;7.15;;;;;;;;;;5003936;28;20046;-60
2022/12/18 03:06:18;;;;;;;14.48;6.95;;;;;;;;;;4986808;28;20037;-63
2022/12/18 03:08:48;;;;;;;15.18;7.15;;;;;;;;;;4991431;28;20041;-61
2022/12/18 03:11:14;;;;;;;13.07;6.80;;;;;;;;;;5002642;28;20069;-63
2022/12/18 03:13:48;;;;;;;12.05;7.40;;;;;;;;;;4988364;28;20125;-62
2022/12/18 03:16:19;;;;;;;14.82;7.07;;;;;;;;;;4980415;28;20046;-62
2022/12/18 03:18:50;;;;;;;9.05;6.55;;;;;;;;;;5006130;28;20061;-61
2022/12/18 03:21:21;;;;;;;12.48;7.28;;;;;;;;;;5005227;28;20038;-60
2022/12/18 03:23:50;;;;;;;12.77;6.30;;;;;;;;;;5006570;28;20092;-61
2022/12/18 03:26:19;;;;;;;13.30;6.20;;;;;;;;;;4987515;28;20117;-62
2022/12/18 03:28:53;;;;;;;10.35;6.50;;;;;;;;;;5009234;28;20417;-62
2022/12/18 03:31:22;;;;;;;10.73;6.70;;;;;;;;;;4995010;28;20126;-63
2022/12/18 03:33:58;;;;;;;10.02;6.60;;;;;;;;;;5005795;28;20307;-62
2022/12/18 03:36:24;;;;;;;12.27;6.50;;;;;;;;;;5005804;28;20057;-60
2022/12/18 03:38:51;;;;;;;7.93;5.88;;;;;;;;;;5005616;28;20069;-60
2022/12/18 03:41:31;;;;;;;10.05;6.30;;;;;;;;;;5000249;28;20557;-60
2022/12/18 03:44:11;;;;;;;12.90;6.20;;;;;;;;;;5006017;28;20052;-61
2022/12/18 03:47:11;;;;;;;9.65;5.72;;;;;;;;;;5001149;28;20393;-60
2022/12/18 03:49:50;;;;;;;14.30;6.65;;;;;;;;;;4997764;28;20462;-61
2022/12/18 03:52:37;;;;;;;11.57;6.22;;;;;;;;;;4997398;28;20120;-61
2022/12/18 03:55:06;;;;;;;13.90;5.93;;;;;;;;;;4996654;28;20539;-62
2022/12/18 03:57:32;;;;;;;11.35;6.00;;;;;;;;;;5000923;28;20045;-59
2022/12/18 04:00:10;;;;;;;9.68;5.90;;;;;;;;;;5007149;28;20088;-59
2022/12/18 04:02:40;;;;;;;9.48;5.35;;;;;;;;;;4989456;28;20128;-62
2022/12/18 04:05:08;;;;;;;10.13;5.50;;;;;;;;;;5007276;28;20478;-64
2022/12/18 04:07:36;;;;;;;8.45;5.00;;;;;;;;;;5001519;28;20066;-61
2022/12/18 04:10:04;;;;;;;10.65;5.78;;;;;;;;;;5000761;28;20111;-62
2022/12/18 04:12:30;;;;;;;8.15;5.50;;;;;;;;;;5004453;28;20043;-62
2022/12/18 04:14:57;;;;;;;13.35;5.57;;;;;;;;;;5006154;28;20064;-61
2022/12/18 04:17:23;;;;;;;9.65;5.25;;;;;;;;;;4989435;28;20046;-59
2022/12/18 04:19:49;;;;;;;8.18;5.20;;;;;;;;;;5001713;28;20105;-62
2022/12/18 04:22:15;;;;;;;8.68;5.10;;;;;;;;;;5001676;28;20049;-61
2022/12/18 04:24:41;;;;;;;7.82;4.38;;;;;;;;;;4999662;28;20054;-60
2022/12/18 04:27:07;;;;;;;8.63;4.57;;;;;;;;;;5003827;28;20048;-60
2022/12/18 04:29:33;;;;;;;6.95;4.43;;;;;;;;;;5004826;28;20042;-60
2022/12/18 04:31:59;;;;;;;8.25;5.45;;;;;;;;;;5005379;28;20046;-60
2022/12/18 04:34:25;;;;;;;7.07;3.92;;;;;;;;;;5006454;28;20076;-61
2022/12/18 04:36:51;;;;;;;7.70;4.40;;;;;;;;;;5001523;28;20489;-59
2022/12/18 04:39:17;;;;;;;7.03;3.88;;;;;;;;;;5006917;28;20046;-58
2022/12/18 04:41:43;;;;;;;8.43;4.30;;;;;;;;;;4989079;28;20136;-62
2022/12/18 04:44:09;;;;;;;6.30;4.05;;;;;;;;;;5001034;28;20411;-62
2022/12/18 04:46:35;;;;;;;8.63;4.10;;;;;;;;;;4995051;28;20690;-65
2022/12/18 04:49:01;;;;;;;5.38;3.80;;;;;;;;;;5007921;28;20049;-60
2022/12/18 04:51:27;;;;;;;10.43;3.95;;;;;;;;;;5007574;28;20593;-63
2022/12/18 04:53:53;;;;;;;6.22;3.72;;;;;;;;;;4998288;28;20069;-62
2022/12/18 04:56:19;;;;;;;5.63;3.88;;;;;;;;;;4999240;28;20139;-60
2022/12/18 04:58:46;;;;;;;5.45;3.83;;;;;;;;;;5000633;28;20061;-60
2022/12/18 05:01:14;;;;;;;6.13;3.60;;;;;;;;;;5008343;28;20125;-59
2022/12/18 05:03:40;;;;;;;4.43;3.05;;;;;;;;;;5004189;28;20060;-61
2022/12/18 05:06:07;;;;;;;5.53;3.20;;;;;;;;;;5004091;28;20041;-60
2022/12/18 05:08:33;;;;;;;5.15;3.10;;;;;;;;;;4995817;28;20140;-59
2022/12/18 05:11:03;;;;;;;7.78;3.25;;;;;;;;;;5005679;28;20049;-58
2022/12/18 05:13:30;;;;;;;8.10;3.40;;;;;;;;;;4998166;28;20045;-62
2022/12/18 05:15:56;;;;;;;7.40;3.30;;;;;;;;;;4998884;28;20042;-60
2022/12/18 05:18:23;;;;;;;6.80;3.35;;;;;;;;;;5005806;28;20239;-59
2022/12/18 05:20:50;;;;;;;9.90;3.40;;;;;;;;;;5005979;28;20057;-61
2022/12/18 05:23:17;;;;;;;6.30;3.10;;;;;;;;;;4998752;28;20073;-58
2022/12/18 05:26:00;;;;;;;6.18;3.20;;;;;;;;;;5003507;28;20144;-63
2022/12/18 05:28:29;;;;;;;4.45;3.22;;;;;;;;;;5002258;28;20058;-61
2022/12/18 05:30:57;;;;;;;8.00;3.63;;;;;;;;;;5005649;28;20548;-61
2022/12/18 05:33:25;;;;;;;6.82;4.18;;;;;;;;;;5005464;28;20057;-62
2022/12/18 05:35:52;;;;;;;7.65;4.30;;;;;;;;;;5005474;28;20046;-64
2022/12/18 05:38:20;;;;;;;7.07;4.22;;;;;;;;;;5005165;28;20424;-61
2022/12/18 05:40:47;;;;;;;5.72;4.18;;;;;;;;;;5006324;28;20063;-63
2022/12/18 05:43:13;;;;;;;10.52;4.55;;;;;;;;;;5003033;28;20084;-62
2022/12/18 05:45:40;;;;;;;12.57;4.47;;;;;;;;;;4998986;28;20051;-62
2022/12/18 05:48:07;;;;;;;8.65;4.20;;;;;;;;;;5000576;28;20050;-62
2022/12/18 05:50:37;;;;;;;10.18;4.38;;;;;;;;;;5000816;28;20486;-64
2022/12/18 05:53:05;;;;;;;10.23;5.00;;;;;;;;;;5004546;28;20042;-67
2022/12/18 05:55:38;;;;;;;10.13;4.90;;;;;;;;;;4995746;28;20133;-62
2022/12/18 05:58:06;;;;;;;8.23;4.90;;;;;;;;;;4998331;28;20567;-63
2022/12/18 06:00:34;;;;;;;10.50;4.95;;;;;;;;;;5001120;28;20445;-63
2022/12/18 06:03:01;;;;;;;10.18;4.70;;;;;;;;;;5004570;28;20050;-61
2022/12/18 06:05:27;;;;;;;8.60;4.75;;;;;;;;;;5007478;28;20045;-61
2022/12/18 06:07:53;;;;;;;11.05;4.63;;;;;;;;;;4996425;28;20105;-63
2022/12/18 06:10:19;;;;;;;7.15;4.50;;;;;;;;;;5005425;28;20046;-61
2022/12/18 06:12:45;;;;;;;7.70;4.68;;;;;;;;;;5003027;28;20116;-60
2022/12/18 06:15:11;;;;;;;8.52;4.20;;;;;;;;;;5001102;28;20494;-61
2022/12/18 06:17:37;;;;;;;11.05;4.45;;;;;;;;;;4999866;28;20406;-62
2022/12/18 06:20:04;;;;;;;7.45;4.60;;;;;;;;;;4995043;28;20045;-60
2022/12/18 06:22:31;;;;;;;5.60;3.90;;;;;;;;;;4994025;28;20042;-61
2022/12/18 06:24:59;;;;;;;8.10;4.30;;;;;;;;;;5006179;28;20049;-61
2022/12/18 06:27:25;;;;;;;7.22;4.20;;;;;;;;;;4998282;28;20054;-65
2022/12/18 06:29:50;;;;;;;8.88;4.03;;;;;;;;;;5005255;28;20053;-62
2022/12/18 06:32:16;;;;;;;7.82;4.47;;;;;;;;;;5003852;28;20282;-61
2022/12/18 06:34:42;;;;;;;6.93;4.00;;;;;;;;;;4998189;28;20046;-62
2022/12/18 06:37:08;;;;;;;5.55;3.97;;;;;;;;;;4999642;28;20038;-61
2022/12/18 06:39:34;;;;;;;9.73;3.75;;;;;;;;;;4994722;28;20049;-61
2022/12/18 06:42:00;;;;;;;6.18;4.00;;;;;;;;;;5003307;28;20045;-62
2022/12/18 06:44:26;;;;;;;5.65;3.60;;;;;;;;;;5005761;28;20042;-63
2022/12/18 06:46:52;;;;;;;9.07;4.47;;;;;;;;;;5004777;28;20050;-62
2022/12/18 06:49:18;;;;;;;8.98;4.63;;;;;;;;;;4999143;28;20621;-60
2022/12/18 06:51:44;;;;;;;7.43;4.13;;;;;;;;;;5003788;28;20053;-61
2022/12/18 06:54:10;;;;;;;7.57;4.18;;;;;;;;;;5004710;28;20073;-63
2022/12/18 06:56:36;;;;;;;7.10;4.20;;;;;;;;;;5001362;28;20045;-62
2022/12/18 06:59:02;;;;;;;9.02;4.20;;;;;;;;;;5004547;28;20158;-62
2022/12/18 07:01:28;;;;;;;8.35;4.28;;;;;;;;;;5003716;28;20053;-61
2022/12/18 07:03:55;;;;;;;9.23;4.63;;;;;;;;;;5003774;28;20460;-62
2022/12/18 07:06:24;;;;;;;8.50;4.65;;;;;;;;;;4994141;28;20054;-66
2022/12/18 07:08:51;;;;;;;7.97;4.20;;;;;;;;;;4996955;28;20490;-65
2022/12/18 07:11:18;;;;;;;7.85;4.32;;;;;;;;;;4994793;28;20095;-62
2022/12/18 07:13:45;;;;;;;6.47;3.92;;;;;;;;;;4993931;28;20584;-61
2022/12/18 07:16:14;;;;;;;7.20;3.72;;;;;;;;;;4996575;28;20832;-61
2022/12/18 07:18:40;;;;;;;4.38;3.10;;;;;;;;;;4996559;28;20405;-64
2022/12/18 07:21:08;;;;;;;4.90;2.95;;;;;;;;;;4997866;28;20120;-61
2022/12/18 07:23:35;;;;;;;9.00;3.10;;;;;;;;;;4990363;28;20540;-61
2022/12/18 07:26:03;;;;;;;6.70;3.30;;;;;;;;;;4998076;28;20050;-63
2022/12/18 07:28:30;;;;;;;4.88;3.05;;;;;;;;;;4996217;28;20045;-62
2022/12/18 07:30:56;;;;;;;4.45;2.67;;;;;;;;;;4992006;28;20046;-61
2022/12/18 07:33:21;;;;;;;4.80;3.20;;;;;;;;;;4998091;28;20157;-62
2022/12/18 07:35:48;;;;;;;4.18;2.70;;;;;;;;;;4994714;28;20481;-65
2022/12/18 07:38:13;;;;;;;4.20;2.80;;;;;;;;;;4994364;28;20050;-63
2022/12/18 07:40:39;;;;;;;5.90;2.83;;;;;;;;;;4997177;28;20889;-63
2022/12/18 07:43:05;;;;;;;6.68;3.13;;;;;;;;;;4995279;28;20042;-64
2022/12/18 07:45:31;;;;;;;6.18;3.03;;;;;;;;;;4998347;28;20678;-61
2022/12/18 07:47:57;;;;;;;3.53;2.63;;;;;;;;;;4996942;28;20042;-61
2022/12/18 07:50:23;;;;;;;6.57;3.08;;;;;;;;;;5001214;28;20041;-61
2022/12/18 07:52:49;;;;;;;3.92;2.85;;;;;;;;;;4994861;28;20096;-63
2022/12/18 07:55:15;;;;;;;3.50;2.60;;;;;;;;;;4998387;28;20073;-67
2022/12/18 07:57:41;;;;;;;6.10;2.92;;;;;;;;;;4994250;28;20054;-64
2022/12/18 08:00:08;;;;;;;7.57;2.83;;;;;;;;;;5001179;28;20120;-62
2022/12/18 08:02:34;;;;;;;4.40;2.78;;;;;;;;;;4999075;28;20129;-62
2022/12/18 08:05:00;;;;;;;4.63;2.67;;;;;;;;;;4977978;28;20054;-62
2022/12/18 08:07:26;;;;;;;7.80;2.95;;;;;;;;;;4995392;28;20049;-68
2022/12/18 08:09:52;;;;;;;3.58;2.63;;;;;;;;;;5004361;28;20049;-62
2022/12/18 08:12:18;;;;;;;6.97;3.15;;;;;;;;;;5000211;28;20050;-63
2022/12/18 08:14:44;;;;;;;5.90;3.25;;;;;;;;;;4999653;28;20063;-62
2022/12/18 08:17:09;;;;;;;9.25;3.65;;;;;;;;;;4998324;28;20054;-63
2022/12/18 08:19:35;;;;;;;10.07;3.67;;;;;;;;;;4991879;28;20440;-62
2022/12/18 08:22:01;;;;;;;9.32;3.58;;;;;;;;;;4995197;28;20054;-65
2022/12/18 08:24:27;;;;;;;5.43;3.05;;;;;;;;;;4981514;28;20064;-63
2022/12/18 08:26:53;;;;;;;5.72;3.20;;;;;;;;;;4997361;28;20149;-63
2022/12/18 08:29:19;;;;;;;15.30;3.97;;;;;;;;;;4999028;28;20045;-69
2022/12/18 08:31:45;;;;;;;8.70;4.60;;;;;;;;;;5002382;28;20268;-62
2022/12/18 08:34:12;;;;;;;11.45;5.40;;;;;;;;;;5002743;28;20158;-62
2022/12/18 08:36:37;;;;;;;9.32;6.40;;;;;;;;;;4994779;28;20046;-63
2022/12/18 08:39:03;;;;;;;17.63;7.20;;;;;;;;;;4999223;28;20061;-64
2022/12/18 08:41:29;;;;;;;12.27;5.68;;;;;;;;;;5000537;28;20052;-61
2022/12/18 08:46:42;;;;;;;11.43;5.80;;;;;;;;;;4999043;28;20050;-63
2022/12/18 08:49:09;;;;;;;9.30;5.07;;;;;;;;;;5005384;28;20520;-62
2022/12/18 08:51:35;;;;;;;9.98;5.10;;;;;;;;;;5001368;28;20436;-62
2022/12/18 08:54:03;;;;;;;7.72;4.80;;;;;;;;;;5002506;28;20060;-63
2022/12/18 08:56:29;;;;;;;6.15;4.05;;;;;;;;;;5001582;28;20141;-65
2022/12/18 08:58:56;;;;;;;8.50;3.80;;;;;;;;;;5001369;28;20125;-63
2022/12/18 09:01:22;;;;;;;5.50;3.60;;;;;;;;;;5000967;28;20769;-65
2022/12/18 09:03:49;;;;;;;6.47;3.58;;;;;;;;;;5001342;28;20057;-65
2022/12/18 09:06:17;;;;;;;5.43;3.38;;;;;;;;;;5000345;28;20054;-64
2022/12/18 09:08:44;;;;;;;6.47;3.35;;;;;;;;;;4999128;28;20045;-63
2022/12/18 09:11:18;;;;;;;7.15;3.80;;;;;;;;;;5001669;28;20681;-66
2022/12/18 09:13:44;;;;;;;;;;;;;;;;;;5002254;28;20062;-62
2022/12/18 09:16:10;;;;;;;5.13;3.10;;;;;;;;;;4998002;28;19936;-64
2022/12/18 09:18:36;;;;;;;6.47;3.60;;;;;;;;;;4995975;28;20056;-62
2022/12/18 09:21:14;;;;;;;7.07;3.22;;;;;;;;;;5000454;28;20054;-64
2022/12/18 09:23:42;;;;;;;9.68;3.47;;;;;;;;;;5000081;28;20236;-63
2022/12/18 09:26:08;;;;;;;5.63;3.28;;;;;;;;;;5000719;28;20042;-62
2022/12/18 09:28:34;;;;;;;5.50;3.53;;;;;;;;;;4998768;28;20042;-63
2022/12/18 09:31:06;;;;;;;6.63;2.95;;;;;;;;;;5002212;28;20421;-65
2022/12/18 09:33:32;;;;;;;5.28;3.30;;;;;;;;;;4995288;28;20050;-61
2022/12/18 09:36:01;;;;;;;11.15;3.45;;;;;;;;;;5003781;28;20061;-61
2022/12/18 09:38:27;;;;;;;7.47;3.40;;;;;;;;;;4998290;28;20577;-62
2022/12/18 09:40:59;;;;;;;7.70;3.47;;;;;;;;;;5006073;28;20101;-64
2022/12/18 09:43:37;;;;;;;4.93;3.13;;;;;;;;;;5002662;28;20101;-62
2022/12/18 09:46:10;;;;;;;6.93;3.63;;;;;;;;;;5001013;28;20042;-63
2022/12/18 09:48:47;;;;;;;5.07;3.30;;;;;;;;;;4999874;28;20069;-63
2022/12/18 09:51:19;;;;;;;3.90;3.03;;;;;;;;;;4987668;28;20050;-61
2022/12/18 09:53:52;;;;;;;6.60;3.55;;;;;;;;;;5005592;28;20689;-60
2022/12/18 09:56:22;;;;;;;4.82;3.22;;;;;;;;;;5005764;28;20057;-66
2022/12/18 09:58:54;;;;;;;4.63;3.15;;;;;;;;;;4995544;28;20052;-64
2022/12/18 10:01:24;;;;;;;8.32;3.63;;;;;;;;;;5001615;28;20046;-65
2022/12/18 10:03:53;;;;;;;5.45;3.65;;;;;;;;;;4995272;28;20058;-61
2022/12/18 10:07:14;;;;;;;9.05;3.25;;;;;;;;;;5005542;28;20363;-63
2022/12/18 10:09:56;;;;;;;7.18;3.72;;;;;;;;;;4965311;28;20060;-63
2022/12/18 10:12:48;;;;;;;6.03;3.47;;;;;;;;;;4985385;28;20037;-62
2022/12/18 10:15:34;;;;;;;5.80;3.30;;;;;;;;;;4988461;28;20158;-63
2022/12/18 10:18:15;;;;;;;6.38;4.00;;;;;;;;;;4998702;28;20061;-64
2022/12/18 10:20:46;;;;;;;6.13;3.83;;;;;;;;;;5002318;28;20560;-64
2022/12/18 10:23:50;;;;;;;7.18;3.97;;;;;;;;;;4999319;28;20125;-65
2022/12/18 10:26:16;;;;;;;6.70;4.00;;;;;;;;;;5002935;28;20045;-66
2022/12/18 10:28:43;;;;;;;10.05;4.32;;;;;;;;;;5004285;28;20057;-63
2022/12/18 10:31:27;;;;;;;5.53;3.55;;;;;;;;;;4978986;28;20116;-64
2022/12/18 10:33:56;;;;;;;10.70;4.20;;;;;;;;;;4995170;28;20409;-65
2022/12/18 10:36:24;;;;;;;5.65;3.83;;;;;;;;;;4995646;28;20314;-64
2022/12/18 10:38:50;;;;;;;7.32;4.75;;;;;;;;;;4995436;28;20054;-66
2022/12/18 10:41:20;;;;;;;5.75;3.78;;;;;;;;;;4999299;28;20038;-64
2022/12/18 10:43:46;;;;;;;6.97;3.97;;;;;;;;;;4994321;28;20072;-65
2022/12/18 10:46:16;;;;;;;6.57;3.83;;;;;;;;;;4997345;28;20061;-64
2022/12/18 10:49:02;;;;;;;7.78;4.45;;;;;;;;;;4999116;28;20508;-67
2022/12/18 10:51:34;;;;;;;6.28;4.18;;;;;;;;;;4998117;28;20693;-66
2022/12/18 10:54:04;;;;;;;6.03;4.20;;;;;;;;;;4993511;28;20504;-64
2022/12/18 10:56:33;;;;;;;6.40;4.47;;;;;;;;;;4990388;28;20374;-65
2022/12/18 10:59:10;;;;;;;15.02;5.20;;;;;;;;;;4994060;28;20050;-67
2022/12/18 11:01:49;;;;;;;9.38;4.65;;;;;;;;;;5000221;28;20049;-66
2022/12/18 11:04:23;;;;;;;8.00;5.00;;;;;;;;;;4994613;28;20042;-67
2022/12/18 11:06:54;;;;;;;;;;;;;;;;;;4994037;28;20053;-67
2022/12/18 11:09:21;;;;;;;9.55;4.57;;;;;;;;;;4998114;28;19973;-68
2022/12/18 11:11:54;;;;;;;7.10;4.05;;;;;;;;;;4998467;28;20123;-65
2022/12/18 11:14:30;;;;;;;7.25;3.92;;;;;;;;;;4994787;28;20053;-66
2022/12/18 11:16:58;;;;;;;9.95;4.35;;;;;;;;;;4995253;28;20054;-65
2022/12/18 11:19:30;;;;;;;7.53;4.85;;;;;;;;;;4972075;28;20042;-66
2022/12/18 11:21:56;;;;;;;10.90;4.70;;;;;;;;;;5000668;28;20057;-67
2022/12/18 11:24:34;;;;;;;7.57;4.40;;;;;;;;;;4978729;28;20391;-66
2022/12/18 11:27:03;;;;;;;7.60;4.75;;;;;;;;;;4996794;28;20054;-66
2022/12/18 11:29:34;;;;;;;10.52;4.93;;;;;;;;;;4973342;28;20046;-67
2022/12/18 11:32:29;;;;;;;8.93;5.10;;;;;;;;;;4999084;28;20104;-66
2022/12/18 11:35:04;;;;;;;;;;;;;;;;;;4989525;28;20053;-66
2022/12/18 11:37:32;;;;;;;8.32;4.90;;;;;;;;;;4995786;28;19925;-64
2022/12/18 11:40:11;;;;;;;7.72;4.45;;;;;;;;;;4981868;28;20048;-63
2022/12/18 11:42:45;;;;;;;6.30;4.22;;;;;;;;;;4995539;28;20664;-63
2022/12/18 11:45:11;;;;;;;10.00;4.18;;;;;;;;;;5004483;28;20076;-64
2022/12/18 11:47:44;;;;;;;9.18;4.30;;;;;;;;;;5000389;28;20149;-66
2022/12/18 11:50:16;;;;;;;10.35;4.50;;;;;;;;;;5008965;28;20046;-66
2022/12/18 11:52:42;;;;;;;7.35;4.38;;;;;;;;;;4999350;28;20137;-64
2022/12/18 11:55:15;;;;;;;5.97;4.20;;;;;;;;;;4989678;28;20053;-65
2022/12/18 11:58:03;;;;;;;10.15;4.97;;;;;;;;;;5003150;28;20042;-66
2022/12/18 12:00:29;;;;;;;8.13;4.53;;;;;;;;;;5007116;28;20510;-65
2022/12/18 12:03:16;;;;;;;7.35;4.43;;;;;;;;;;5003003;28;20050;-65
2022/12/18 12:05:50;;;;;;;11.70;5.75;;;;;;;;;;5002557;28;20253;-64
2022/12/18 12:08:36;;;;;;;23.40;11.50;;;;;;;;;;5000491;28;20460;-65
2022/12/18 12:11:20;;;;;;;14.38;7.68;;;;;;;;;;5011387;28;21697;-65
2022/12/18 12:14:02;;;;;;;;;;;;;;;;;;5009320;28;20046;-62
2022/12/18 12:16:55;;;;;;;13.63;5.32;;;;;;;;;;4999052;28;20475;-64
2022/12/18 12:20:01;;;;;;;12.30;6.05;;;;;;;;;;4987681;28;20061;-65
2022/12/18 12:22:39;;;;;;;9.15;4.72;;;;;;;;;;4998430;28;20042;-68
2022/12/18 12:25:25;;;;;;;7.07;4.45;;;;;;;;;;4999724;28;20042;-62
2022/12/18 12:28:06;;;;;;;7.60;4.97;;;;;;;;;;5006851;28;20125;-66
2022/12/18 12:30:44;;;;;;;7.80;4.25;;;;;;;;;;5007842;28;20076;-67
2022/12/18 12:33:47;;;;;;;6.90;4.30;;;;;;;;;;5005055;28;20057;-66
2022/12/18 12:36:26;;;;;;;7.63;4.50;;;;;;;;;;4997067;28;20467;-64
2022/12/18 12:38:58;;;;;;;8.18;4.38;;;;;;;;;;5002605;28;20229;-64
2022/12/18 12:44:40;;;;;;;6.95;4.45;;;;;;;;;;5004836;28;20045;-65
2022/12/18 12:47:17;;;;;;;5.88;3.88;;;;;;;;;;5003391;28;20255;-64
2022/12/18 12:49:47;;;;;;;9.23;5.18;;;;;;;;;;5000384;28;20053;-63
2022/12/18 12:52:37;;;;;;;7.45;4.80;;;;;;;;;;4999772;28;20049;-61
2022/12/18 12:55:08;;;;;;;6.57;4.10;;;;;;;;;;5004385;28;20053;-63
2022/12/18 12:57:39;;;;;;;8.20;4.20;;;;;;;;;;4995470;28;20488;-62
2022/12/18 13:00:11;;;;;;;11.38;4.10;;;;;;;;;;5002832;28;20128;-64
2022/12/18 13:03:08;;;;;;;7.72;5.05;;;;;;;;;;4987918;28;20084;-61
2022/12/18 13:05:34;;;;;;;3.83;2.90;;;;;;;;;;5000571;28;20052;-62
2022/12/18 13:08:06;;;;;;;7.57;3.45;;;;;;;;;;4996395;28;20045;-65
2022/12/18 13:10:32;;;;;;;5.65;3.17;;;;;;;;;;4997830;28;20061;-64
2022/12/18 13:12:59;;;;;;;8.07;3.47;;;;;;;;;;4997302;28;20042;-67
2022/12/18 13:15:47;;;;;;;6.28;2.85;;;;;;;;;;4992308;28;20060;-64
2022/12/18 13:18:22;;;;;;;8.73;3.80;;;;;;;;;;5001738;28;20041;-64
2022/12/18 13:20:48;;;;;;;3.53;2.50;;;;;;;;;;5005338;28;20136;-61
2022/12/18 13:23:27;;;;;;;3.97;2.25;;;;;;;;;;4997462;28;20054;-63
2022/12/18 13:25:54;;;;;;;4.25;2.35;;;;;;;;;;4994014;28;20046;-61
2022/12/18 13:28:32;;;;;;;10.73;4.25;;;;;;;;;;5004715;28;20119;-62
2022/12/18 13:30:59;;;;;;;8.18;3.72;;;;;;;;;;5006524;28;20528;-61
2022/12/18 13:33:26;;;;;;;15.70;7.75;;;;;;;;;;5001759;28;20502;-61
2022/12/18 13:36:13;;;;;;;10.15;4.65;;;;;;;;;;5000787;28;20053;-64
2022/12/18 13:38:40;;;;;;;4.28;2.40;;;;;;;;;;4997935;28;20061;-63
2022/12/18 13:41:15;;;;;;;3.60;2.38;;;;;;;;;;4996056;28;20133;-61
2022/12/18 13:43:47;;;;;;;7.72;3.25;;;;;;;;;;4995779;28;20056;-64
2022/12/18 13:46:43;;;;;;;5.82;3.25;;;;;;;;;;5000683;28;20118;-61
2022/12/18 13:49:11;;;;;;;6.72;2.97;;;;;;;;;;5001444;28;20045;-60
2022/12/18 13:51:43;;;;;;;7.95;3.53;;;;;;;;;;4999221;28;20076;-61
2022/12/18 13:54:30;;;;;;;8.18;3.25;;;;;;;;;;5002834;28;20368;-65
2022/12/18 13:56:56;;;;;;;3.00;2.00;;;;;;;;;;5003723;28;20141;-62
2022/12/18 13:59:33;;;;;;;3.50;2.10;;;;;;;;;;4999275;28;20046;-64
2022/12/18 14:02:05;;;;;;;6.72;2.28;;;;;;;;;;4999149;28;20050;-66
2022/12/18 14:04:34;;;;;;;5.07;2.72;;;;;;;;;;5003468;28;20045;-67
2022/12/18 14:07:11;;;;;;;3.53;1.90;;;;;;;;;;4991918;28;20061;-65
2022/12/18 14:09:43;;;;;;;5.15;2.45;;;;;;;;;;5000597;28;20076;-63
2022/12/18 14:15:06;;;;;;;7.80;2.90;;;;;;;;;;4996635;28;20050;-62
2022/12/18 14:17:32;;;;;;;3.10;2.15;;;;;;;;;;4964810;28;20443;-68
2022/12/18 14:19:58;;;;;;;5.13;1.98;;;;;;;;;;4980547;28;20505;-64
2022/12/18 14:22:29;;;;;;;4.65;2.08;;;;;;;;;;4993082;28;20133;-65
2022/12/18 14:25:19;;;;;;;3.80;2.17;;;;;;;;;;5003000;28;20131;-64
2022/12/18 14:28:05;;;;;;;3.30;1.90;;;;;;;;;;4970042;28;20042;-64
2022/12/18 14:30:34;;;;;;;5.95;2.13;;;;;;;;;;4997811;28;20076;-65
2022/12/18 14:33:19;;;;;;;6.22;2.80;;;;;;;;;;4996285;28;20058;-67
2022/12/18 14:36:01;;;;;;;5.63;2.63;;;;;;;;;;4992685;28;20239;-62
2022/12/18 14:38:34;;;;;;;6.15;2.10;;;;;;;;;;4997903;28;20042;-65
2022/12/18 14:41:12;;;;;;;3.60;2.17;;;;;;;;;;4996480;28;20074;-64
2022/12/18 14:43:41;;;;;;;5.07;2.78;;;;;;;;;;5003528;28;20053;-63
2022/12/18 14:46:34;;;;;;;7.28;2.70;;;;;;;;;;5006188;28;20065;-67
2022/12/18 14:49:16;;;;;;;4.43;2.35;;;;;;;;;;5002763;28;20050;-66
2022/12/18 14:51:48;;;;;;;5.90;2.20;;;;;;;;;;5001892;28;20133;-65
2022/12/18 14:54:18;;;;;;;4.60;2.78;;;;;;;;;;4999551;28;20046;-68
2022/12/18 14:56:51;;;;;;;4.72;2.55;;;;;;;;;;4999381;28;20128;-62
2022/12/18 14:59:22;;;;;;;5.25;2.22;;;;;;;;;;4990546;28;20050;-63
2022/12/18 15:02:18;;;;;;;4.07;2.22;;;;;;;;;;4965832;28;20060;-62
2022/12/18 15:04:44;;;;;;;5.82;2.50;;;;;;;;;;4990808;28;20151;-65
2022/12/18 15:07:10;;;;;;;3.75;2.30;;;;;;;;;;4996496;28;20414;-62
2022/12/18 15:09:37;;;;;;;4.15;2.40;;;;;;;;;;4990477;28;20494;-64
2022/12/18 15:12:04;;;;;;;3.95;2.47;;;;;;;;;;4991925;28;20050;-64